sensor_id;sensor_type;location;lat;lon;timestamp;P1;durP1;ratioP1;P2;durP2;ratioP2
77304;SDS011;66364;52.622;7.746;2023-04-01T00:00:56;12.20;;;11.18;;
77304;SDS011;66364;52.622;7.746;2023-04-01T00:02:58;12.07;;;11.08;;
77304;SDS011;66364;52.622;7.746;2023-04-01T00:04:59;12.78;;;11.63;;
77304;SDS011;66364;52.622;7.746;2023-04-01T00:07:01;12.55;;;11.45;;
77304;SDS011;66364;52.622;7.746;2023-04-01T00:09:02;12.03;;;10.93;;
77304;SDS011;66364;52.622;7.746;2023-04-01T00:11:03;14.50;;;13.30;;
77304;SDS011;66364;52.622;7.746;2023-04-01T00:13:04;13.77;;;10.83;;
77304;SDS011;66364;52.622;7.746;2023-04-01T00:15:06;12.47;;;11.28;;
77304;SDS011;66364;52.622;7.746;2023-04-01T00:17:08;12.65;;;11.55;;
77304;SDS011;66364;52.622;7.746;2023-04-01T00:19:10;13.53;;;12.43;;
77304;SDS011;66364;52.622;7.746;2023-04-01T00:21:11;13.72;;;12.35;;
77304;SDS011;66364;52.622;7.746;2023-04-01T00:23:12;14.03;;;12.70;;
77304;SDS011;66364;52.622;7.746;2023-04-01T00:25:15;12.50;;;11.40;;
77304;SDS011;66364;52.622;7.746;2023-04-01T00:27:16;14.00;;;12.70;;
77304;SDS011;66364;52.622;7.746;2023-04-01T00:29:17;12.87;;;11.53;;
77304;SDS011;66364;52.622;7.746;2023-04-01T00:31:18;14.00;;;12.53;;
77304;SDS011;66364;52.622;7.746;2023-04-01T00:33:20;12.95;;;11.70;;
77304;SDS011;66364;52.622;7.746;2023-04-01T00:35:21;13.38;;;12.30;;
77304;SDS011;66364;52.622;7.746;2023-04-01T00:37:22;14.27;;;13.07;;
77304;SDS011;66364;52.622;7.746;2023-04-01T00:39:23;14.63;;;13.22;;
77304;SDS011;66364;52.622;7.746;2023-04-01T00:41:24;14.47;;;13.23;;
77304;SDS011;66364;52.622;7.746;2023-04-01T00:43:25;14.50;;;13.10;;
77304;SDS011;66364;52.622;7.746;2023-04-01T00:45:34;14.97;;;13.57;;
77304;SDS011;66364;52.622;7.746;2023-04-01T00:47:34;13.22;;;11.93;;
77304;SDS011;66364;52.622;7.746;2023-04-01T00:49:42;14.80;;;13.40;;
77304;SDS011;66364;52.622;7.746;2023-04-01T00:51:46;15.03;;;13.58;;
77304;SDS011;66364;52.622;7.746;2023-04-01T00:53:51;14.47;;;13.20;;
77304;SDS011;66364;52.622;7.746;2023-04-01T00:56:01;15.50;;;13.90;;
77304;SDS011;66364;52.622;7.746;2023-04-01T00:58:15;14.90;;;13.60;;
77304;SDS011;66364;52.622;7.746;2023-04-01T01:00:19;15.98;;;14.47;;
77304;SDS011;66364;52.622;7.746;2023-04-01T01:02:20;15.90;;;14.30;;
77304;SDS011;66364;52.622;7.746;2023-04-01T01:11:22;15.53;;;13.18;;
77304;SDS011;66364;52.622;7.746;2023-04-01T01:13:30;15.13;;;13.72;;
77304;SDS011;66364;52.622;7.746;2023-04-01T01:15:36;15.20;;;13.78;;
77304;SDS011;66364;52.622;7.746;2023-04-01T01:20:18;14.50;;;13.13;;
77304;SDS011;66364;52.622;7.746;2023-04-01T01:26:53;14.87;;;13.48;;
77304;SDS011;66364;52.622;7.746;2023-04-01T01:31:47;16.52;;;14.07;;
77304;SDS011;66364;52.622;7.746;2023-04-01T01:33:57;14.38;;;12.43;;
77304;SDS011;66364;52.622;7.746;2023-04-01T01:36:02;14.30;;;12.95;;
77304;SDS011;66364;52.622;7.746;2023-04-01T01:38:07;12.93;;;11.63;;
77304;SDS011;66364;52.622;7.746;2023-04-01T01:40:13;14.43;;;13.08;;
77304;SDS011;66364;52.622;7.746;2023-04-01T01:42:16;13.55;;;12.15;;
77304;SDS011;66364;52.622;7.746;2023-04-01T01:44:19;13.50;;;12.30;;
77304;SDS011;66364;52.622;7.746;2023-04-01T01:46:22;12.93;;;11.83;;
77304;SDS011;66364;52.622;7.746;2023-04-01T01:48:26;12.20;;;10.48;;
77304;SDS011;66364;52.622;7.746;2023-04-01T01:50:30;11.60;;;10.50;;
77304;SDS011;66364;52.622;7.746;2023-04-01T01:52:32;14.87;;;12.00;;
77304;SDS011;66364;52.622;7.746;2023-04-01T01:54:33;12.25;;;11.15;;
77304;SDS011;66364;52.622;7.746;2023-04-01T01:56:34;11.05;;;9.93;;
77304;SDS011;66364;52.622;7.746;2023-04-01T01:58:41;11.50;;;10.30;;
77304;SDS011;66364;52.622;7.746;2023-04-01T02:00:41;11.68;;;10.48;;
77304;SDS011;66364;52.622;7.746;2023-04-01T02:02:46;11.65;;;10.55;;
77304;SDS011;66364;52.622;7.746;2023-04-01T02:04:49;10.72;;;9.70;;
77304;SDS011;66364;52.622;7.746;2023-04-01T02:07:02;10.90;;;10.00;;
77304;SDS011;66364;52.622;7.746;2023-04-01T02:09:05;10.65;;;9.75;;
77304;SDS011;66364;52.622;7.746;2023-04-01T02:11:10;12.40;;;11.10;;
77304;SDS011;66364;52.622;7.746;2023-04-01T02:13:15;10.78;;;9.88;;
77304;SDS011;66364;52.622;7.746;2023-04-01T02:15:19;9.50;;;8.70;;
77304;SDS011;66364;52.622;7.746;2023-04-01T02:17:23;10.38;;;9.35;;
77304;SDS011;66364;52.622;7.746;2023-04-01T02:19:27;11.78;;;10.82;;
77304;SDS011;66364;52.622;7.746;2023-04-01T02:21:31;12.78;;;10.75;;
77304;SDS011;66364;52.622;7.746;2023-04-01T02:23:33;10.58;;;9.55;;
77304;SDS011;66364;52.622;7.746;2023-04-01T02:25:36;10.00;;;9.00;;
77304;SDS011;66364;52.622;7.746;2023-04-01T02:27:40;11.10;;;10.20;;
77304;SDS011;66364;52.622;7.746;2023-04-01T02:29:44;10.15;;;9.25;;
77304;SDS011;66364;52.622;7.746;2023-04-01T02:31:47;10.18;;;9.25;;
77304;SDS011;66364;52.622;7.746;2023-04-01T02:33:49;9.93;;;9.03;;
77304;SDS011;66364;52.622;7.746;2023-04-01T02:35:50;10.45;;;9.45;;
77304;SDS011;66364;52.622;7.746;2023-04-01T02:37:52;9.75;;;8.85;;
77304;SDS011;66364;52.622;7.746;2023-04-01T02:39:58;10.80;;;9.80;;
77304;SDS011;66364;52.622;7.746;2023-04-01T02:42:06;10.00;;;9.10;;
77304;SDS011;66364;52.622;7.746;2023-04-01T02:44:08;9.63;;;8.80;;
77304;SDS011;66364;52.622;7.746;2023-04-01T02:46:11;10.25;;;9.15;;
77304;SDS011;66364;52.622;7.746;2023-04-01T02:48:12;10.38;;;9.30;;
77304;SDS011;66364;52.622;7.746;2023-04-01T02:50:13;10.38;;;9.43;;
77304;SDS011;66364;52.622;7.746;2023-04-01T02:52:14;10.25;;;9.35;;
77304;SDS011;66364;52.622;7.746;2023-04-01T02:54:15;10.38;;;9.38;;
77304;SDS011;66364;52.622;7.746;2023-04-01T02:56:16;11.25;;;9.40;;
77304;SDS011;66364;52.622;7.746;2023-04-01T02:58:17;10.30;;;9.40;;
77304;SDS011;66364;52.622;7.746;2023-04-01T03:00:18;10.03;;;8.98;;
77304;SDS011;66364;52.622;7.746;2023-04-01T03:02:20;15.48;;;9.50;;
77304;SDS011;66364;52.622;7.746;2023-04-01T03:04:22;10.78;;;9.05;;
77304;SDS011;66364;52.622;7.746;2023-04-01T03:06:23;9.93;;;8.43;;
77304;SDS011;66364;52.622;7.746;2023-04-01T03:08:23;9.13;;;8.43;;
77304;SDS011;66364;52.622;7.746;2023-04-01T03:10:24;8.70;;;8.00;;
77304;SDS011;66364;52.622;7.746;2023-04-01T03:12:26;11.15;;;9.78;;
77304;SDS011;66364;52.622;7.746;2023-04-01T03:14:27;10.00;;;9.00;;
77304;SDS011;66364;52.622;7.746;2023-04-01T03:16:28;9.43;;;8.63;;
77304;SDS011;66364;52.622;7.746;2023-04-01T03:18:29;12.17;;;9.30;;
77304;SDS011;66364;52.622;7.746;2023-04-01T03:20:30;9.15;;;8.43;;
77304;SDS011;66364;52.622;7.746;2023-04-01T03:22:31;9.95;;;8.70;;
77304;SDS011;66364;52.622;7.746;2023-04-01T03:24:32;9.30;;;8.50;;
77304;SDS011;66364;52.622;7.746;2023-04-01T03:26:33;10.00;;;9.10;;
77304;SDS011;66364;52.622;7.746;2023-04-01T03:28:34;10.67;;;9.67;;
77304;SDS011;66364;52.622;7.746;2023-04-01T03:30:35;9.87;;;8.97;;
77304;SDS011;66364;52.622;7.746;2023-04-01T03:32:36;10.08;;;9.08;;
77304;SDS011;66364;52.622;7.746;2023-04-01T03:34:37;9.50;;;8.60;;
77304;SDS011;66364;52.622;7.746;2023-04-01T03:36:38;9.10;;;8.30;;
77304;SDS011;66364;52.622;7.746;2023-04-01T03:38:42;10.17;;;9.17;;
77304;SDS011;66364;52.622;7.746;2023-04-01T03:40:44;9.58;;;8.68;;
77304;SDS011;66364;52.622;7.746;2023-04-01T03:42:45;9.53;;;8.53;;
77304;SDS011;66364;52.622;7.746;2023-04-01T03:44:46;9.25;;;8.15;;
77304;SDS011;66364;52.622;7.746;2023-04-01T03:46:47;10.35;;;9.25;;
77304;SDS011;66364;52.622;7.746;2023-04-01T03:48:48;9.60;;;8.70;;
77304;SDS011;66364;52.622;7.746;2023-04-01T03:50:49;10.40;;;9.40;;
77304;SDS011;66364;52.622;7.746;2023-04-01T03:52:49;9.97;;;8.97;;
77304;SDS011;66364;52.622;7.746;2023-04-01T03:54:51;9.00;;;8.20;;
77304;SDS011;66364;52.622;7.746;2023-04-01T03:56:52;10.10;;;9.08;;
77304;SDS011;66364;52.622;7.746;2023-04-01T03:58:53;8.90;;;8.17;;
77304;SDS011;66364;52.622;7.746;2023-04-01T04:00:54;8.63;;;7.70;;
77304;SDS011;66364;52.622;7.746;2023-04-01T04:02:55;9.43;;;8.37;;
77304;SDS011;66364;52.622;7.746;2023-04-01T04:04:56;9.90;;;8.95;;
77304;SDS011;66364;52.622;7.746;2023-04-01T04:06:57;10.23;;;9.25;;
77304;SDS011;66364;52.622;7.746;2023-04-01T04:08:58;9.77;;;8.77;;
77304;SDS011;66364;52.622;7.746;2023-04-01T04:10:59;9.70;;;8.85;;
77304;SDS011;66364;52.622;7.746;2023-04-01T04:13:00;9.40;;;8.50;;
77304;SDS011;66364;52.622;7.746;2023-04-01T04:15:01;9.73;;;8.73;;
77304;SDS011;66364;52.622;7.746;2023-04-01T04:17:02;10.50;;;9.50;;
77304;SDS011;66364;52.622;7.746;2023-04-01T04:19:04;10.23;;;9.23;;
77304;SDS011;66364;52.622;7.746;2023-04-01T04:21:05;10.80;;;9.73;;
77304;SDS011;66364;52.622;7.746;2023-04-01T04:23:06;11.10;;;9.67;;
77304;SDS011;66364;52.622;7.746;2023-04-01T04:25:07;12.60;;;11.40;;
77304;SDS011;66364;52.622;7.746;2023-04-01T04:27:10;10.78;;;9.65;;
77304;SDS011;66364;52.622;7.746;2023-04-01T04:29:11;10.25;;;9.20;;
77304;SDS011;66364;52.622;7.746;2023-04-01T04:31:12;10.20;;;9.23;;
77304;SDS011;66364;52.622;7.746;2023-04-01T04:33:23;11.68;;;10.48;;
77304;SDS011;66364;52.622;7.746;2023-04-01T04:35:24;12.98;;;10.45;;
77304;SDS011;66364;52.622;7.746;2023-04-01T04:37:26;14.33;;;9.85;;
77304;SDS011;66364;52.622;7.746;2023-04-01T04:39:27;11.57;;;10.27;;
77304;SDS011;66364;52.622;7.746;2023-04-01T04:41:28;11.85;;;10.65;;
77304;SDS011;66364;52.622;7.746;2023-04-01T04:43:28;11.83;;;10.37;;
77304;SDS011;66364;52.622;7.746;2023-04-01T04:45:30;10.55;;;9.40;;
77304;SDS011;66364;52.622;7.746;2023-04-01T04:47:31;12.45;;;10.25;;
77304;SDS011;66364;52.622;7.746;2023-04-01T04:49:32;11.20;;;9.77;;
77304;SDS011;66364;52.622;7.746;2023-04-01T04:51:33;13.33;;;10.27;;
77304;SDS011;66364;52.622;7.746;2023-04-01T04:53:34;12.03;;;9.73;;
77304;SDS011;66364;52.622;7.746;2023-04-01T04:55:36;13.48;;;10.88;;
77304;SDS011;66364;52.622;7.746;2023-04-01T04:57:36;10.65;;;9.55;;
77304;SDS011;66364;52.622;7.746;2023-04-01T04:59:37;11.10;;;9.87;;
77304;SDS011;66364;52.622;7.746;2023-04-01T05:01:38;11.53;;;10.00;;
77304;SDS011;66364;52.622;7.746;2023-04-01T05:03:39;10.57;;;9.47;;
77304;SDS011;66364;52.622;7.746;2023-04-01T05:05:48;11.38;;;9.65;;
77304;SDS011;66364;52.622;7.746;2023-04-01T05:07:45;11.03;;;8.95;;
77304;SDS011;66364;52.622;7.746;2023-04-01T05:09:46;11.43;;;9.37;;
77304;SDS011;66364;52.622;7.746;2023-04-01T05:11:47;11.83;;;9.90;;
77304;SDS011;66364;52.622;7.746;2023-04-01T05:13:48;11.17;;;9.63;;
77304;SDS011;66364;52.622;7.746;2023-04-01T05:15:49;11.30;;;9.43;;
77304;SDS011;66364;52.622;7.746;2023-04-01T05:17:50;10.37;;;8.90;;
77304;SDS011;66364;52.622;7.746;2023-04-01T05:19:51;8.80;;;8.00;;
77304;SDS011;66364;52.622;7.746;2023-04-01T05:21:52;10.32;;;8.78;;
77304;SDS011;66364;52.622;7.746;2023-04-01T05:23:52;9.57;;;8.57;;
77304;SDS011;66364;52.622;7.746;2023-04-01T05:25:53;11.20;;;8.10;;
77304;SDS011;66364;52.622;7.746;2023-04-01T05:27:54;8.60;;;7.67;;
77304;SDS011;66364;52.622;7.746;2023-04-01T05:29:55;10.07;;;9.07;;
77304;SDS011;66364;52.622;7.746;2023-04-01T05:31:56;10.47;;;9.33;;
77304;SDS011;66364;52.622;7.746;2023-04-01T05:33:56;8.80;;;7.90;;
77304;SDS011;66364;52.622;7.746;2023-04-01T05:36:05;11.50;;;8.13;;
77304;SDS011;66364;52.622;7.746;2023-04-01T05:38:14;10.50;;;9.05;;
77304;SDS011;66364;52.622;7.746;2023-04-01T05:40:15;9.68;;;8.68;;
77304;SDS011;66364;52.622;7.746;2023-04-01T05:42:16;10.80;;;9.30;;
77304;SDS011;66364;52.622;7.746;2023-04-01T05:44:17;8.43;;;7.63;;
77304;SDS011;66364;52.622;7.746;2023-04-01T05:46:17;9.50;;;8.60;;
77304;SDS011;66364;52.622;7.746;2023-04-01T05:48:18;11.57;;;10.20;;
77304;SDS011;66364;52.622;7.746;2023-04-01T05:50:19;10.57;;;9.47;;
77304;SDS011;66364;52.622;7.746;2023-04-01T05:52:20;10.13;;;9.10;;
77304;SDS011;66364;52.622;7.746;2023-04-01T05:54:21;9.18;;;8.28;;
77304;SDS011;66364;52.622;7.746;2023-04-01T05:56:24;9.88;;;8.90;;
77304;SDS011;66364;52.622;7.746;2023-04-01T05:58:25;10.20;;;9.10;;
77304;SDS011;66364;52.622;7.746;2023-04-01T06:00:25;9.13;;;8.23;;
77304;SDS011;66364;52.622;7.746;2023-04-01T06:02:30;11.50;;;9.65;;
77304;SDS011;66364;52.622;7.746;2023-04-01T06:04:32;10.43;;;9.33;;
77304;SDS011;66364;52.622;7.746;2023-04-01T06:06:38;10.98;;;9.78;;
77304;SDS011;66364;52.622;7.746;2023-04-01T06:08:40;10.93;;;8.90;;
77304;SDS011;66364;52.622;7.746;2023-04-01T06:15:12;9.98;;;8.98;;
77304;SDS011;66364;52.622;7.746;2023-04-01T06:34:52;10.55;;;9.50;;
77304;SDS011;66364;52.622;7.746;2023-04-01T06:54:31;8.70;;;7.90;;
77304;SDS011;66364;52.622;7.746;2023-04-01T06:56:36;9.25;;;8.35;;
77304;SDS011;66364;52.622;7.746;2023-04-01T06:58:51;9.88;;;8.98;;
77304;SDS011;66364;52.622;7.746;2023-04-01T07:00:57;10.38;;;9.13;;
77304;SDS011;66364;52.622;7.746;2023-04-01T07:03:14;11.18;;;10.05;;
77304;SDS011;66364;52.622;7.746;2023-04-01T07:05:24;9.58;;;8.68;;
77304;SDS011;66364;52.622;7.746;2023-04-01T07:09:41;8.85;;;8.05;;
77304;SDS011;66364;52.622;7.746;2023-04-01T07:11:46;8.55;;;7.70;;
77304;SDS011;66364;52.622;7.746;2023-04-01T07:13:49;9.38;;;8.48;;
77304;SDS011;66364;52.622;7.746;2023-04-01T07:15:57;8.50;;;7.67;;
77304;SDS011;66364;52.622;7.746;2023-04-01T07:18:14;9.70;;;8.63;;
77304;SDS011;66364;52.622;7.746;2023-04-01T07:20:20;8.35;;;7.55;;
77304;SDS011;66364;52.622;7.746;2023-04-01T07:24:45;8.10;;;7.30;;
77304;SDS011;66364;52.622;7.746;2023-04-01T07:26:48;8.60;;;7.70;;
77304;SDS011;66364;52.622;7.746;2023-04-01T07:28:52;8.25;;;7.47;;
77304;SDS011;66364;52.622;7.746;2023-04-01T07:33:28;7.90;;;7.10;;
77304;SDS011;66364;52.622;7.746;2023-04-01T07:47:12;7.45;;;6.80;;
77304;SDS011;66364;52.622;7.746;2023-04-01T07:51:23;8.65;;;6.40;;
77304;SDS011;66364;52.622;7.746;2023-04-01T08:00:20;7.50;;;6.85;;
77304;SDS011;66364;52.622;7.746;2023-04-01T08:07:20;5.78;;;5.22;;
77304;SDS011;66364;52.622;7.746;2023-04-01T08:09:26;6.47;;;5.37;;
77304;SDS011;66364;52.622;7.746;2023-04-01T08:21:23;7.05;;;6.35;;
77304;SDS011;66364;52.622;7.746;2023-04-01T08:23:28;6.78;;;6.12;;
77304;SDS011;66364;52.622;7.746;2023-04-01T08:25:44;6.40;;;5.85;;
77304;SDS011;66364;52.622;7.746;2023-04-01T08:27:50;6.37;;;5.78;;
77304;SDS011;66364;52.622;7.746;2023-04-01T08:30:04;5.80;;;5.30;;
77304;SDS011;66364;52.622;7.746;2023-04-01T08:32:23;6.70;;;6.10;;
77304;SDS011;66364;52.622;7.746;2023-04-01T08:34:28;6.50;;;5.90;;
77304;SDS011;66364;52.622;7.746;2023-04-01T08:36:37;6.78;;;6.08;;
77304;SDS011;66364;52.622;7.746;2023-04-01T08:38:49;6.87;;;6.20;;
77304;SDS011;66364;52.622;7.746;2023-04-01T08:43:09;6.70;;;6.10;;
77304;SDS011;66364;52.622;7.746;2023-04-01T08:47:38;6.97;;;6.37;;
77304;SDS011;66364;52.622;7.746;2023-04-01T08:49:55;6.92;;;6.22;;
77304;SDS011;66364;52.622;7.746;2023-04-01T08:54:27;6.95;;;6.35;;
77304;SDS011;66364;52.622;7.746;2023-04-01T09:01:15;6.47;;;5.45;;
77304;SDS011;66364;52.622;7.746;2023-04-01T09:05:42;6.75;;;5.62;;
77304;SDS011;66364;52.622;7.746;2023-04-01T09:29:15;7.03;;;6.42;;
77304;SDS011;66364;52.622;7.746;2023-04-01T09:33:49;7.30;;;6.30;;
77304;SDS011;66364;52.622;7.746;2023-04-01T10:09:50;3.02;;;2.80;;
77304;SDS011;66364;52.622;7.746;2023-04-01T10:36:51;3.05;;;2.75;;
77304;SDS011;66364;52.622;7.746;2023-04-01T10:41:11;3.58;;;3.27;;
77304;SDS011;66364;52.622;7.746;2023-04-01T10:54:43;3.75;;;3.45;;
77304;SDS011;66364;52.622;7.746;2023-04-01T10:57:12;3.62;;;3.30;;
77304;SDS011;66364;52.622;7.746;2023-04-01T11:20:36;1.60;;;1.50;;
77304;SDS011;66364;52.622;7.746;2023-04-01T11:25:35;4.62;;;2.47;;
77304;SDS011;66364;52.622;7.746;2023-04-01T11:27:55;1.52;;;1.42;;
77304;SDS011;66364;52.622;7.746;2023-04-01T11:39:36;5.37;;;4.87;;
77304;SDS011;66364;52.622;7.746;2023-04-01T11:41:59;5.12;;;4.62;;
77304;SDS011;66364;52.622;7.746;2023-04-01T11:55:49;5.95;;;5.35;;
77304;SDS011;66364;52.622;7.746;2023-04-01T12:14:27;4.60;;;4.22;;
77304;SDS011;66364;52.622;7.746;2023-04-01T12:18:56;5.40;;;5.00;;
77304;SDS011;66364;52.622;7.746;2023-04-01T12:21:25;4.30;;;3.98;;
77304;SDS011;66364;52.622;7.746;2023-04-01T12:28:45;4.70;;;4.30;;
77304;SDS011;66364;52.622;7.746;2023-04-01T13:10:48;3.27;;;3.05;;
77304;SDS011;66364;52.622;7.746;2023-04-01T13:12:58;3.25;;;2.95;;
77304;SDS011;66364;52.622;7.746;2023-04-01T13:17:27;3.20;;;2.98;;
77304;SDS011;66364;52.622;7.746;2023-04-01T13:19:46;2.72;;;2.47;;
77304;SDS011;66364;52.622;7.746;2023-04-01T13:24:04;2.10;;;2.00;;
77304;SDS011;66364;52.622;7.746;2023-04-01T13:31:24;2.70;;;2.50;;
77304;SDS011;66364;52.622;7.746;2023-04-01T13:33:20;2.70;;;2.60;;
77304;SDS011;66364;52.622;7.746;2023-04-01T13:35:34;1.77;;;1.67;;
77304;SDS011;66364;52.622;7.746;2023-04-01T13:39:49;2.40;;;2.20;;
77304;SDS011;66364;52.622;7.746;2023-04-01T13:42:14;2.50;;;2.40;;
77304;SDS011;66364;52.622;7.746;2023-04-01T13:44:26;2.35;;;2.25;;
77304;SDS011;66364;52.622;7.746;2023-04-01T13:51:04;6.80;;;5.92;;
77304;SDS011;66364;52.622;7.746;2023-04-01T13:58:01;6.62;;;5.75;;
77304;SDS011;66364;52.622;7.746;2023-04-01T14:10:43;1.90;;;1.80;;
77304;SDS011;66364;52.622;7.746;2023-04-01T14:15:42;3.02;;;2.72;;
77304;SDS011;66364;52.622;7.746;2023-04-01T14:20:22;3.00;;;2.83;;
77304;SDS011;66364;52.622;7.746;2023-04-01T14:24:56;3.55;;;3.22;;
77304;SDS011;66364;52.622;7.746;2023-04-01T14:29:53;3.35;;;3.15;;
77304;SDS011;66364;52.622;7.746;2023-04-01T14:36:41;2.22;;;2.10;;
77304;SDS011;66364;52.622;7.746;2023-04-01T14:46:23;2.67;;;2.47;;
77304;SDS011;66364;52.622;7.746;2023-04-01T14:51:31;3.25;;;2.42;;
77304;SDS011;66364;52.622;7.746;2023-04-01T14:53:38;2.10;;;1.90;;
77304;SDS011;66364;52.622;7.746;2023-04-01T15:00:14;2.10;;;2.00;;
77304;SDS011;66364;52.622;7.746;2023-04-01T15:04:44;3.20;;;2.90;;
77304;SDS011;66364;52.622;7.746;2023-04-01T15:09:24;2.30;;;2.20;;
77304;SDS011;66364;52.622;7.746;2023-04-01T15:11:54;2.55;;;2.42;;
77304;SDS011;66364;52.622;7.746;2023-04-01T15:19:38;2.70;;;2.50;;
77304;SDS011;66364;52.622;7.746;2023-04-01T15:23:58;3.50;;;3.30;;
77304;SDS011;66364;52.622;7.746;2023-04-01T15:28:28;4.53;;;4.25;;
77304;SDS011;66364;52.622;7.746;2023-04-01T15:33:07;3.20;;;2.90;;
77304;SDS011;66364;52.622;7.746;2023-04-01T15:35:25;2.27;;;2.10;;
77304;SDS011;66364;52.622;7.746;2023-04-01T15:46:54;2.15;;;2.05;;
77304;SDS011;66364;52.622;7.746;2023-04-01T15:54:05;2.47;;;2.27;;
77304;SDS011;66364;52.622;7.746;2023-04-01T15:58:54;2.10;;;2.00;;
77304;SDS011;66364;52.622;7.746;2023-04-01T16:01:16;2.70;;;2.50;;
77304;SDS011;66364;52.622;7.746;2023-04-01T16:10:31;2.30;;;2.20;;
77304;SDS011;66364;52.622;7.746;2023-04-01T16:12:36;3.62;;;3.33;;
77304;SDS011;66364;52.622;7.746;2023-04-01T16:17:14;3.00;;;2.80;;
77304;SDS011;66364;52.622;7.746;2023-04-01T16:22:00;3.65;;;3.45;;
77304;SDS011;66364;52.622;7.746;2023-04-01T16:23:51;3.77;;;3.40;;
77304;SDS011;66364;52.622;7.746;2023-04-01T16:26:09;3.55;;;3.35;;
77304;SDS011;66364;52.622;7.746;2023-04-01T16:28:19;6.28;;;5.87;;
77304;SDS011;66364;52.622;7.746;2023-04-01T16:37:27;3.45;;;2.90;;
77304;SDS011;66364;52.622;7.746;2023-04-01T16:41:48;4.85;;;4.50;;
77304;SDS011;66364;52.622;7.746;2023-04-01T16:54:04;4.70;;;4.40;;
77304;SDS011;66364;52.622;7.746;2023-04-01T16:56:26;3.45;;;3.25;;
77304;SDS011;66364;52.622;7.746;2023-04-01T17:01:13;3.10;;;2.90;;
77304;SDS011;66364;52.622;7.746;2023-04-01T17:03:27;3.40;;;3.15;;
77304;SDS011;66364;52.622;7.746;2023-04-01T17:17:31;11.60;;;10.40;;
77304;SDS011;66364;52.622;7.746;2023-04-01T17:27:27;5.75;;;5.28;;
77304;SDS011;66364;52.622;7.746;2023-04-01T17:29:46;5.47;;;5.08;;
77304;SDS011;66364;52.622;7.746;2023-04-01T17:31:54;3.77;;;3.47;;
77304;SDS011;66364;52.622;7.746;2023-04-01T17:43:00;5.40;;;4.90;;
77304;SDS011;66364;52.622;7.746;2023-04-01T17:45:09;3.15;;;2.95;;
77304;SDS011;66364;52.622;7.746;2023-04-01T17:55:19;2.95;;;2.75;;
77304;SDS011;66364;52.622;7.746;2023-04-01T18:01:30;3.02;;;2.83;;
77304;SDS011;66364;52.622;7.746;2023-04-01T18:06:06;1.90;;;1.80;;
77304;SDS011;66364;52.622;7.746;2023-04-01T18:08:11;2.20;;;2.10;;
77304;SDS011;66364;52.622;7.746;2023-04-01T18:10:41;2.42;;;2.22;;
77304;SDS011;66364;52.622;7.746;2023-04-01T18:15:27;3.90;;;3.50;;
77304;SDS011;66364;52.622;7.746;2023-04-01T18:20:33;2.22;;;2.10;;
77304;SDS011;66364;52.622;7.746;2023-04-01T18:25:02;4.08;;;3.67;;
77304;SDS011;66364;52.622;7.746;2023-04-01T18:27:18;2.90;;;2.55;;
77304;SDS011;66364;52.622;7.746;2023-04-01T18:29:40;4.40;;;4.00;;
77304;SDS011;66364;52.622;7.746;2023-04-01T18:31:51;3.85;;;3.55;;
77304;SDS011;66364;52.622;7.746;2023-04-01T18:36:15;6.72;;;5.10;;
77304;SDS011;66364;52.622;7.746;2023-04-01T18:38:26;3.50;;;3.20;;
77304;SDS011;66364;52.622;7.746;2023-04-01T18:42:55;4.30;;;3.40;;
77304;SDS011;66364;52.622;7.746;2023-04-01T18:45:22;5.53;;;5.12;;
77304;SDS011;66364;52.622;7.746;2023-04-01T18:47:34;4.87;;;4.20;;
77304;SDS011;66364;52.622;7.746;2023-04-01T18:49:55;4.28;;;3.92;;
77304;SDS011;66364;52.622;7.746;2023-04-01T18:51:58;3.90;;;3.60;;
77304;SDS011;66364;52.622;7.746;2023-04-01T18:54:05;4.10;;;3.77;;
77304;SDS011;66364;52.622;7.746;2023-04-01T18:56:29;3.72;;;3.42;;
77304;SDS011;66364;52.622;7.746;2023-04-01T18:58:46;3.60;;;3.30;;
77304;SDS011;66364;52.622;7.746;2023-04-01T19:00:52;3.00;;;2.70;;
77304;SDS011;66364;52.622;7.746;2023-04-01T19:03:02;3.02;;;2.80;;
77304;SDS011;66364;52.622;7.746;2023-04-01T19:05:20;2.87;;;2.60;;
77304;SDS011;66364;52.622;7.746;2023-04-01T19:07:44;2.33;;;2.17;;
77304;SDS011;66364;52.622;7.746;2023-04-01T19:09:48;2.58;;;2.37;;
77304;SDS011;66364;52.622;7.746;2023-04-01T19:21:04;4.83;;;4.53;;
77304;SDS011;66364;52.622;7.746;2023-04-01T19:25:40;4.15;;;3.85;;
77304;SDS011;66364;52.622;7.746;2023-04-01T19:28:04;3.67;;;3.40;;
77304;SDS011;66364;52.622;7.746;2023-04-01T19:30:10;4.33;;;4.03;;
77304;SDS011;66364;52.622;7.746;2023-04-01T19:37:45;6.60;;;6.00;;
77304;SDS011;66364;52.622;7.746;2023-04-01T19:42:30;4.60;;;4.30;;
77304;SDS011;66364;52.622;7.746;2023-04-01T19:44:55;8.18;;;6.62;;
77304;SDS011;66364;52.622;7.746;2023-04-01T19:47:05;5.72;;;4.53;;
77304;SDS011;66364;52.622;7.746;2023-04-01T19:51:39;7.67;;;6.97;;
77304;SDS011;66364;52.622;7.746;2023-04-01T19:53:50;4.42;;;4.00;;
77304;SDS011;66364;52.622;7.746;2023-04-01T19:56:18;4.25;;;3.95;;
77304;SDS011;66364;52.622;7.746;2023-04-01T19:58:55;4.33;;;4.03;;
77304;SDS011;66364;52.622;7.746;2023-04-01T20:00:37;4.45;;;4.15;;
77304;SDS011;66364;52.622;7.746;2023-04-01T20:05:55;24.92;;;22.42;;
77304;SDS011;66364;52.622;7.746;2023-04-01T20:07:27;5.25;;;4.75;;
77304;SDS011;66364;52.622;7.746;2023-04-01T20:16:50;8.33;;;7.60;;
77304;SDS011;66364;52.622;7.746;2023-04-01T20:18:59;7.67;;;7.00;;
77304;SDS011;66364;52.622;7.746;2023-04-01T20:26:09;13.75;;;12.40;;
77304;SDS011;66364;52.622;7.746;2023-04-01T20:39:49;15.65;;;8.00;;
77304;SDS011;66364;52.622;7.746;2023-04-01T20:46:48;13.18;;;11.90;;
77304;SDS011;66364;52.622;7.746;2023-04-01T20:49:41;10.43;;;9.48;;
77304;SDS011;66364;52.622;7.746;2023-04-01T20:56:46;8.60;;;6.83;;
77304;SDS011;66364;52.622;7.746;2023-04-01T21:03:25;7.87;;;6.50;;
77304;SDS011;66364;52.622;7.746;2023-04-01T21:07:48;10.35;;;8.73;;
77304;SDS011;66364;52.622;7.746;2023-04-01T21:12:48;9.40;;;7.58;;
77304;SDS011;66364;52.622;7.746;2023-04-01T21:34:55;12.10;;;7.40;;
77304;SDS011;66364;52.622;7.746;2023-04-01T21:39:38;11.05;;;8.35;;
77304;SDS011;66364;52.622;7.746;2023-04-01T21:42:14;7.12;;;6.00;;
77304;SDS011;66364;52.622;7.746;2023-04-01T21:44:43;7.03;;;6.42;;
77304;SDS011;66364;52.622;7.746;2023-04-01T21:49:57;8.58;;;7.67;;
77304;SDS011;66364;52.622;7.746;2023-04-01T21:52:16;10.82;;;8.35;;
77304;SDS011;66364;52.622;7.746;2023-04-01T21:54:44;9.15;;;8.03;;
77304;SDS011;66364;52.622;7.746;2023-04-01T22:08:06;7.80;;;7.00;;
77304;SDS011;66364;52.622;7.746;2023-04-01T22:10:36;8.63;;;7.10;;
77304;SDS011;66364;52.622;7.746;2023-04-01T22:12:46;8.75;;;6.80;;
77304;SDS011;66364;52.622;7.746;2023-04-01T22:24:00;11.18;;;9.85;;
77304;SDS011;66364;52.622;7.746;2023-04-01T22:26:14;9.18;;;8.38;;
77304;SDS011;66364;52.622;7.746;2023-04-01T22:30:58;7.87;;;7.08;;
77304;SDS011;66364;52.622;7.746;2023-04-01T22:47:04;10.08;;;8.50;;
77304;SDS011;66364;52.622;7.746;2023-04-01T22:49:23;11.05;;;9.90;;
77304;SDS011;66364;52.622;7.746;2023-04-01T22:51:38;14.90;;;8.90;;
77304;SDS011;66364;52.622;7.746;2023-04-01T22:59:31;8.35;;;7.50;;
77304;SDS011;66364;52.622;7.746;2023-04-01T23:01:59;10.50;;;7.87;;
77304;SDS011;66364;52.622;7.746;2023-04-01T23:04:03;8.48;;;7.67;;
77304;SDS011;66364;52.622;7.746;2023-04-01T23:06:05;10.08;;;7.55;;
77304;SDS011;66364;52.622;7.746;2023-04-01T23:10:52;8.28;;;7.47;;
77304;SDS011;66364;52.622;7.746;2023-04-01T23:12:52;9.30;;;7.47;;
77304;SDS011;66364;52.622;7.746;2023-04-01T23:14:58;8.55;;;7.65;;
77304;SDS011;66364;52.622;7.746;2023-04-01T23:19:32;10.28;;;8.15;;
77304;SDS011;66364;52.622;7.746;2023-04-01T23:21:44;7.47;;;6.75;;